sensor_id;sensor_type;location;lat;lon;timestamp;pressure;altitude;pressure_sealevel;temperature;humidity
64889;BME280;51386;53.082;8.816;2023-09-08T00:00:46;101886.38;;;26.03;44.04
64889;BME280;51386;53.082;8.816;2023-09-08T00:03:13;101886.84;;;26.00;43.48
64889;BME280;51386;53.082;8.816;2023-09-08T00:05:41;101884.16;;;26.00;43.96
64889;BME280;51386;53.082;8.816;2023-09-08T00:08:09;101884.38;;;25.98;43.95
64889;BME280;51386;53.082;8.816;2023-09-08T00:10:37;101885.22;;;25.99;43.77
64889;BME280;51386;53.082;8.816;2023-09-08T00:13:04;101882.78;;;25.97;43.61
64889;BME280;51386;53.082;8.816;2023-09-08T00:15:33;101886.28;;;25.98;43.68
64889;BME280;51386;53.082;8.816;2023-09-08T00:18:01;101881.47;;;26.00;42.77
64889;BME280;51386;53.082;8.816;2023-09-08T00:20:28;101876.88;;;26.00;42.68
64889;BME280;51386;53.082;8.816;2023-09-08T00:22:55;101873.94;;;26.02;42.77
64889;BME280;51386;53.082;8.816;2023-09-08T00:25:23;101866.66;;;26.02;42.48
64889;BME280;51386;53.082;8.816;2023-09-08T00:27:51;101866.41;;;26.04;42.57
64889;BME280;51386;53.082;8.816;2023-09-08T00:30:18;101868.03;;;26.05;42.37
64889;BME280;51386;53.082;8.816;2023-09-08T00:32:45;101869.44;;;26.07;42.92
64889;BME280;51386;53.082;8.816;2023-09-08T00:35:12;101871.88;;;26.09;42.23
64889;BME280;51386;53.082;8.816;2023-09-08T00:37:40;101872.47;;;26.11;42.14
64889;BME280;51386;53.082;8.816;2023-09-08T00:40:08;101874.09;;;26.12;42.20
64889;BME280;51386;53.082;8.816;2023-09-08T00:42:35;101877.38;;;26.14;42.06
64889;BME280;51386;53.082;8.816;2023-09-08T00:45:05;101877.38;;;26.14;42.03
64889;BME280;51386;53.082;8.816;2023-09-08T00:47:33;101879.81;;;26.15;42.65
64889;BME280;51386;53.082;8.816;2023-09-08T00:50:03;101873.59;;;26.15;42.62
64889;BME280;51386;53.082;8.816;2023-09-08T00:52:31;101871.97;;;26.14;42.16
64889;BME280;51386;53.082;8.816;2023-09-08T00:54:59;101877.63;;;26.12;42.46
64889;BME280;51386;53.082;8.816;2023-09-08T00:57:26;101874.09;;;26.12;41.78
64889;BME280;51386;53.082;8.816;2023-09-08T00:59:54;101870.81;;;26.10;42.44
64889;BME280;51386;53.082;8.816;2023-09-08T01:02:22;101872.91;;;26.08;42.25
64889;BME280;51386;53.082;8.816;2023-09-08T01:04:50;101870.75;;;26.05;42.57
64889;BME280;51386;53.082;8.816;2023-09-08T01:07:19;101873.44;;;26.05;42.09
64889;BME280;51386;53.082;8.816;2023-09-08T01:09:47;101869.91;;;26.04;42.58
64889;BME280;51386;53.082;8.816;2023-09-08T01:12:15;101872.06;;;26.02;42.31
64889;BME280;51386;53.082;8.816;2023-09-08T01:14:42;101867.97;;;26.00;42.71
64889;BME280;51386;53.082;8.816;2023-09-08T01:17:09;101869.28;;;25.97;43.03
64889;BME280;51386;53.082;8.816;2023-09-08T01:19:38;101866.25;;;25.94;42.49
64889;BME280;51386;53.082;8.816;2023-09-08T01:22:40;101869.88;;;25.83;42.68
64889;BME280;51386;53.082;8.816;2023-09-08T01:25:18;101869.88;;;25.83;42.87
64889;BME280;51386;53.082;8.816;2023-09-08T01:27:51;101860.38;;;25.80;43.53
64889;BME280;51386;53.082;8.816;2023-09-08T01:30:20;101864.41;;;25.78;43.67
64889;BME280;51386;53.082;8.816;2023-09-08T01:32:49;101863.28;;;25.74;43.08
64889;BME280;51386;53.082;8.816;2023-09-08T01:35:17;101861.31;;;25.69;43.67
64889;BME280;51386;53.082;8.816;2023-09-08T01:37:46;101859.91;;;25.67;43.74
64889;BME280;51386;53.082;8.816;2023-09-08T01:40:15;101858.28;;;25.66;43.93
64889;BME280;51386;53.082;8.816;2023-09-08T01:42:43;101850.66;;;25.63;43.98
64889;BME280;51386;53.082;8.816;2023-09-08T01:45:10;101855.50;;;25.61;44.08
64889;BME280;51386;53.082;8.816;2023-09-08T01:47:37;101859.75;;;25.57;44.21
64889;BME280;51386;53.082;8.816;2023-09-08T01:50:05;101852.97;;;25.54;44.08
64889;BME280;51386;53.082;8.816;2023-09-08T01:52:33;101851.59;;;25.51;44.16
64889;BME280;51386;53.082;8.816;2023-09-08T01:54:59;101841.28;;;25.48;43.86
64889;BME280;51386;53.082;8.816;2023-09-08T01:57:28;101842.84;;;25.44;44.17
64889;BME280;51386;53.082;8.816;2023-09-08T01:59:55;101848.13;;;25.39;43.63
64889;BME280;51386;53.082;8.816;2023-09-08T02:02:22;101847.00;;;25.35;44.33
64889;BME280;51386;53.082;8.816;2023-09-08T02:04:49;101842.06;;;25.32;43.86
64889;BME280;51386;53.082;8.816;2023-09-08T02:07:16;101844.22;;;25.30;44.06
64889;BME280;51386;53.082;8.816;2023-09-08T02:09:43;101838.50;;;25.27;43.79
64889;BME280;51386;53.082;8.816;2023-09-08T02:12:11;101841.41;;;25.25;43.82
64889;BME280;51386;53.082;8.816;2023-09-08T02:14:39;101834.06;;;25.21;44.34
64889;BME280;51386;53.082;8.816;2023-09-08T02:17:06;101826.72;;;25.16;44.36
64889;BME280;51386;53.082;8.816;2023-09-08T02:19:33;101835.28;;;25.13;44.30
64889;BME280;51386;53.082;8.816;2023-09-08T02:22:00;101836.38;;;25.12;44.45
64889;BME280;51386;53.082;8.816;2023-09-08T02:24:27;101841.75;;;25.12;44.46
64889;BME280;51386;53.082;8.816;2023-09-08T02:26:54;101839.63;;;25.14;44.10
64889;BME280;51386;53.082;8.816;2023-09-08T02:29:21;101841.84;;;25.17;44.34
64889;BME280;51386;53.082;8.816;2023-09-08T02:31:50;101843.22;;;25.20;44.60
64889;BME280;51386;53.082;8.816;2023-09-08T02:34:17;101848.38;;;25.21;44.47
64889;BME280;51386;53.082;8.816;2023-09-08T02:36:44;101841.34;;;25.20;44.20
64889;BME280;51386;53.082;8.816;2023-09-08T02:39:14;101851.56;;;25.18;43.79
64889;BME280;51386;53.082;8.816;2023-09-08T02:41:41;101843.72;;;25.17;44.25
64889;BME280;51386;53.082;8.816;2023-09-08T02:44:08;101838.81;;;25.14;43.93
64889;BME280;51386;53.082;8.816;2023-09-08T02:46:35;101843.88;;;25.10;43.83
64889;BME280;51386;53.082;8.816;2023-09-08T02:49:04;101840.84;;;25.07;43.93
64889;BME280;51386;53.082;8.816;2023-09-08T02:51:31;101838.88;;;25.02;44.78
64889;BME280;51386;53.082;8.816;2023-09-08T02:53:58;101842.63;;;25.01;44.83
64889;BME280;51386;53.082;8.816;2023-09-08T02:56:25;101837.13;;;24.96;44.84
64889;BME280;51386;53.082;8.816;2023-09-08T02:58:52;101836.56;;;24.94;44.86
64889;BME280;51386;53.082;8.816;2023-09-08T03:01:19;101839.78;;;24.91;44.55
64889;BME280;51386;53.082;8.816;2023-09-08T03:03:47;101837.28;;;24.89;44.48
64889;BME280;51386;53.082;8.816;2023-09-08T03:06:19;101831.91;;;24.89;44.85
64889;BME280;51386;53.082;8.816;2023-09-08T03:08:47;101829.47;;;24.88;44.77
64889;BME280;51386;53.082;8.816;2023-09-08T03:11:14;101827.59;;;24.88;44.28
64889;BME280;51386;53.082;8.816;2023-09-08T03:13:41;101829.47;;;24.88;44.94
64889;BME280;51386;53.082;8.816;2023-09-08T03:16:09;101827.00;;;24.86;45.01
64889;BME280;51386;53.082;8.816;2023-09-08T03:18:36;101818.13;;;24.86;44.94
64889;BME280;51386;53.082;8.816;2023-09-08T03:21:05;101815.91;;;24.83;44.70
64889;BME280;51386;53.082;8.816;2023-09-08T03:23:41;101813.13;;;24.78;44.86
64889;BME280;51386;53.082;8.816;2023-09-08T03:26:10;101809.81;;;24.76;44.96
64889;BME280;51386;53.082;8.816;2023-09-08T03:28:38;101810.88;;;24.75;45.05
64889;BME280;51386;53.082;8.816;2023-09-08T03:31:06;101810.06;;;24.74;44.97
64889;BME280;51386;53.082;8.816;2023-09-08T03:33:33;101811.94;;;24.74;45.25
64889;BME280;51386;53.082;8.816;2023-09-08T03:36:01;101812.41;;;24.71;45.42
64889;BME280;51386;53.082;8.816;2023-09-08T03:38:28;101809.63;;;24.66;45.31
64889;BME280;51386;53.082;8.816;2023-09-08T03:40:56;101809.78;;;24.59;45.31
64889;BME280;51386;53.082;8.816;2023-09-08T03:43:23;101808.28;;;24.52;45.44
64889;BME280;51386;53.082;8.816;2023-09-08T03:45:50;101812.53;;;24.48;45.47
64889;BME280;51386;53.082;8.816;2023-09-08T03:48:17;101810.31;;;24.45;45.74
64889;BME280;51386;53.082;8.816;2023-09-08T03:50:45;101806.00;;;24.44;45.90
64889;BME280;51386;53.082;8.816;2023-09-08T03:53:13;101807.59;;;24.45;46.12
64889;BME280;51386;53.082;8.816;2023-09-08T03:55:40;101801.91;;;24.41;45.80
64889;BME280;51386;53.082;8.816;2023-09-08T03:58:08;101811.59;;;24.42;46.06
64889;BME280;51386;53.082;8.816;2023-09-08T04:00:35;101803.50;;;24.42;45.69
64889;BME280;51386;53.082;8.816;2023-09-08T04:03:03;101806.47;;;24.41;45.84
64889;BME280;51386;53.082;8.816;2023-09-08T04:05:30;101806.47;;;24.41;45.58
64889;BME280;51386;53.082;8.816;2023-09-08T04:07:57;101810.56;;;24.43;45.88
64889;BME280;51386;53.082;8.816;2023-09-08T04:10:25;101807.59;;;24.45;46.01
64889;BME280;51386;53.082;8.816;2023-09-08T04:12:52;101806.00;;;24.44;45.84
64889;BME280;51386;53.082;8.816;2023-09-08T04:15:20;101801.66;;;24.43;46.23
64889;BME280;51386;53.082;8.816;2023-09-08T04:17:47;101802.69;;;24.42;46.03
64889;BME280;51386;53.082;8.816;2023-09-08T04:20:15;101804.34;;;24.43;45.91
64889;BME280;51386;53.082;8.816;2023-09-08T04:22:42;101802.47;;;24.43;45.74
64889;BME280;51386;53.082;8.816;2023-09-08T04:25:10;101802.78;;;24.47;45.69
64889;BME280;51386;53.082;8.816;2023-09-08T04:27:37;101796.38;;;24.48;45.72
64889;BME280;51386;53.082;8.816;2023-09-08T04:30:06;101789.91;;;24.49;46.19
64889;BME280;51386;53.082;8.816;2023-09-08T04:32:35;101787.22;;;24.49;45.93
64889;BME280;51386;53.082;8.816;2023-09-08T04:35:05;101797.41;;;24.47;45.90
64889;BME280;51386;53.082;8.816;2023-09-08T04:37:34;101789.84;;;24.44;46.25
64889;BME280;51386;53.082;8.816;2023-09-08T04:40:01;101790.63;;;24.44;46.12
64889;BME280;51386;53.082;8.816;2023-09-08T04:42:29;101784.91;;;24.41;46.39
64889;BME280;51386;53.082;8.816;2023-09-08T04:44:56;101784.34;;;24.39;46.54
64889;BME280;51386;53.082;8.816;2023-09-08T04:47:23;101785.38;;;24.38;46.44
64889;BME280;51386;53.082;8.816;2023-09-08T04:49:52;101786.69;;;24.35;46.52
64889;BME280;51386;53.082;8.816;2023-09-08T04:52:19;101780.97;;;24.32;46.65
64889;BME280;51386;53.082;8.816;2023-09-08T04:54:46;101783.06;;;24.30;46.19
64889;BME280;51386;53.082;8.816;2023-09-08T04:57:13;101781.44;;;24.29;46.59
64889;BME280;51386;53.082;8.816;2023-09-08T04:59:50;101776.78;;;24.24;46.62
64889;BME280;51386;53.082;8.816;2023-09-08T05:02:17;101773.75;;;24.20;46.92
64889;BME280;51386;53.082;8.816;2023-09-08T05:04:45;101778.81;;;24.17;46.56
64889;BME280;51386;53.082;8.816;2023-09-08T05:07:14;101777.63;;;24.13;47.07
64889;BME280;51386;53.082;8.816;2023-09-08T05:09:41;101778.13;;;24.10;46.97
64889;BME280;51386;53.082;8.816;2023-09-08T05:12:08;101781.50;;;24.05;46.70
64889;BME280;51386;53.082;8.816;2023-09-08T05:14:36;101786.28;;;24.03;47.57
64889;BME280;51386;53.082;8.816;2023-09-08T05:17:03;101787.91;;;24.04;47.41
64889;BME280;51386;53.082;8.816;2023-09-08T05:19:31;101783.59;;;24.03;47.54
64889;BME280;51386;53.082;8.816;2023-09-08T05:21:58;101791.78;;;24.08;47.04
64889;BME280;51386;53.082;8.816;2023-09-08T05:24:27;101792.97;;;24.12;47.16
64889;BME280;51386;53.082;8.816;2023-09-08T05:26:54;101790.28;;;24.12;46.79
64889;BME280;51386;53.082;8.816;2023-09-08T05:29:21;101786.53;;;24.13;46.94
64889;BME280;51386;53.082;8.816;2023-09-08T05:31:48;101782.09;;;24.07;47.25
64889;BME280;51386;53.082;8.816;2023-09-08T05:34:15;101790.63;;;24.04;47.26
64889;BME280;51386;53.082;8.816;2023-09-08T05:36:43;101786.28;;;24.03;47.57
64889;BME280;51386;53.082;8.816;2023-09-08T05:39:10;101786.53;;;24.02;47.09
64889;BME280;51386;53.082;8.816;2023-09-08T05:41:39;101785.47;;;24.03;47.09
64889;BME280;51386;53.082;8.816;2023-09-08T05:44:06;101778.19;;;24.03;47.70
64889;BME280;51386;53.082;8.816;2023-09-08T05:46:33;101779.84;;;24.04;47.74
64889;BME280;51386;53.082;8.816;2023-09-08T05:49:00;101784.19;;;24.05;47.53
64889;BME280;51386;53.082;8.816;2023-09-08T05:51:27;101778.34;;;24.08;47.88
64889;BME280;51386;53.082;8.816;2023-09-08T05:53:55;101774.34;;;24.11;47.50
64889;BME280;51386;53.082;8.816;2023-09-08T05:56:24;101773.53;;;24.10;47.82
64889;BME280;51386;53.082;8.816;2023-09-08T05:58:54;101788.63;;;24.11;47.64
64889;BME280;51386;53.082;8.816;2023-09-08T06:01:21;101779.53;;;24.12;47.46
64889;BME280;51386;53.082;8.816;2023-09-08T06:03:49;101784.41;;;24.15;47.69
64889;BME280;51386;53.082;8.816;2023-09-08T06:06:16;101786.88;;;24.17;47.43
64889;BME280;51386;53.082;8.816;2023-09-08T06:08:43;101782.91;;;24.19;47.51
64889;BME280;51386;53.082;8.816;2023-09-08T06:11:10;101787.19;;;24.20;47.46
64889;BME280;51386;53.082;8.816;2023-09-08T06:13:39;101778.09;;;24.21;47.65
64889;BME280;51386;53.082;8.816;2023-09-08T06:16:07;101779.94;;;24.21;47.83
64889;BME280;51386;53.082;8.816;2023-09-08T06:18:34;101784.88;;;24.24;47.45
64889;BME280;51386;53.082;8.816;2023-09-08T06:21:07;101777.38;;;24.26;47.33
64889;BME280;51386;53.082;8.816;2023-09-08T06:23:34;101787.97;;;24.33;47.83
64889;BME280;51386;53.082;8.816;2023-09-08T06:26:03;101785.38;;;24.38;47.67
64889;BME280;51386;53.082;8.816;2023-09-08T06:28:31;101786.53;;;24.42;47.68
64889;BME280;51386;53.082;8.816;2023-09-08T06:30:58;101769.59;;;24.41;46.93
64889;BME280;51386;53.082;8.816;2023-09-08T06:33:26;101779.63;;;24.46;47.27
64889;BME280;51386;53.082;8.816;2023-09-08T06:35:53;101784.78;;;24.47;47.23
64889;BME280;51386;53.082;8.816;2023-09-08T06:38:21;101784.63;;;24.54;47.20
64889;BME280;51386;53.082;8.816;2023-09-08T06:40:48;101788.56;;;24.63;47.26
64889;BME280;51386;53.082;8.816;2023-09-08T06:43:15;101792.72;;;24.70;47.37
64889;BME280;51386;53.082;8.816;2023-09-08T06:45:42;101798.22;;;24.75;47.09
64889;BME280;51386;53.082;8.816;2023-09-08T06:48:09;101792.84;;;24.75;46.67
64889;BME280;51386;53.082;8.816;2023-09-08T06:50:37;101790.00;;;24.82;46.67
64889;BME280;51386;53.082;8.816;2023-09-08T06:53:05;101780.97;;;24.88;46.40
64889;BME280;51386;53.082;8.816;2023-09-08T06:55:32;101782.09;;;24.92;46.68
64889;BME280;51386;53.082;8.816;2023-09-08T06:57:59;101790.53;;;24.96;46.43
64889;BME280;51386;53.082;8.816;2023-09-08T07:00:26;101790.84;;;24.99;46.10
64889;BME280;51386;53.082;8.816;2023-09-08T07:02:53;101785.56;;;25.04;46.02
64889;BME280;51386;53.082;8.816;2023-09-08T07:05:20;101788.50;;;25.19;45.70
64889;BME280;51386;53.082;8.816;2023-09-08T07:07:49;101785.25;;;25.50;45.34
64889;BME280;51386;53.082;8.816;2023-09-08T07:10:17;101786.84;;;25.90;44.74
64889;BME280;51386;53.082;8.816;2023-09-08T07:12:44;101796.78;;;26.49;44.20
64889;BME280;51386;53.082;8.816;2023-09-08T07:15:11;101799.56;;;27.13;42.50
64889;BME280;51386;53.082;8.816;2023-09-08T07:17:38;101797.88;;;27.75;41.72
64889;BME280;51386;53.082;8.816;2023-09-08T07:20:06;101797.63;;;28.44;40.67
64889;BME280;51386;53.082;8.816;2023-09-08T07:22:34;101789.06;;;29.02;39.08
64889;BME280;51386;53.082;8.816;2023-09-08T07:25:03;101790.38;;;29.60;37.76
64889;BME280;51386;53.082;8.816;2023-09-08T07:27:30;101801.34;;;30.14;36.27
64889;BME280;51386;53.082;8.816;2023-09-08T07:29:57;101800.06;;;30.55;35.84
64889;BME280;51386;53.082;8.816;2023-09-08T07:32:24;101798.94;;;31.00;35.49
64889;BME280;51386;53.082;8.816;2023-09-08T07:34:51;101798.28;;;31.42;34.14
64889;BME280;51386;53.082;8.816;2023-09-08T07:37:24;101794.50;;;31.90;33.61
64889;BME280;51386;53.082;8.816;2023-09-08T07:39:51;101795.19;;;32.25;32.74
64889;BME280;51386;53.082;8.816;2023-09-08T07:42:20;101796.41;;;32.56;32.21
64889;BME280;51386;53.082;8.816;2023-09-08T07:44:47;101792.44;;;32.99;31.65
64889;BME280;51386;53.082;8.816;2023-09-08T07:47:14;101794.09;;;33.46;31.18
64889;BME280;51386;53.082;8.816;2023-09-08T07:49:46;101796.13;;;33.95;30.69
64889;BME280;51386;53.082;8.816;2023-09-08T07:52:16;101786.28;;;34.35;29.46
64889;BME280;51386;53.082;8.816;2023-09-08T07:54:43;101795.28;;;34.71;29.25
64889;BME280;51386;53.082;8.816;2023-09-08T07:57:10;101787.13;;;35.02;29.31
64889;BME280;51386;53.082;8.816;2023-09-08T07:59:38;101781.34;;;35.25;28.06
64889;BME280;51386;53.082;8.816;2023-09-08T08:02:06;101784.22;;;35.51;28.41
64889;BME280;51386;53.082;8.816;2023-09-08T08:04:33;101784.94;;;35.65;27.92
64889;BME280;51386;53.082;8.816;2023-09-08T08:07:01;101795.78;;;35.79;27.38
64889;BME280;51386;53.082;8.816;2023-09-08T08:09:28;101782.00;;;36.01;27.26
64889;BME280;51386;53.082;8.816;2023-09-08T08:11:55;101788.47;;;36.22;27.21
64889;BME280;51386;53.082;8.816;2023-09-08T08:14:22;101791.38;;;36.43;27.09
64889;BME280;51386;53.082;8.816;2023-09-08T08:16:51;101785.75;;;36.65;26.33
64889;BME280;51386;53.082;8.816;2023-09-08T08:19:18;101788.00;;;36.80;26.26
64889;BME280;51386;53.082;8.816;2023-09-08T08:21:45;101781.69;;;36.88;26.61
64889;BME280;51386;53.082;8.816;2023-09-08T08:24:12;101784.72;;;37.12;25.82
64889;BME280;51386;53.082;8.816;2023-09-08T08:26:39;101780.47;;;37.41;25.70
64889;BME280;51386;53.082;8.816;2023-09-08T08:29:06;101779.22;;;37.67;25.08
64889;BME280;51386;53.082;8.816;2023-09-08T08:31:33;101783.72;;;38.01;24.89
64889;BME280;51386;53.082;8.816;2023-09-08T08:34:02;101781.34;;;38.41;24.56
64889;BME280;51386;53.082;8.816;2023-09-08T08:36:29;101783.97;;;38.91;24.16
64889;BME280;51386;53.082;8.816;2023-09-08T08:38:56;101778.09;;;39.37;23.67
64889;BME280;51386;53.082;8.816;2023-09-08T08:41:24;101784.25;;;39.67;23.52
64889;BME280;51386;53.082;8.816;2023-09-08T08:43:52;101777.31;;;39.73;23.49
64889;BME280;51386;53.082;8.816;2023-09-08T08:46:22;101776.28;;;39.41;23.48
64889;BME280;51386;53.082;8.816;2023-09-08T08:48:51;101779.16;;;39.00;24.02
64889;BME280;51386;53.082;8.816;2023-09-08T08:51:23;101781.25;;;39.03;23.89
64889;BME280;51386;53.082;8.816;2023-09-08T08:53:51;101774.09;;;39.47;24.10
64889;BME280;51386;53.082;8.816;2023-09-08T08:56:19;101783.47;;;40.18;22.61
64889;BME280;51386;53.082;8.816;2023-09-08T08:58:47;101783.25;;;40.91;22.48
64889;BME280;51386;53.082;8.816;2023-09-08T09:01:16;101778.72;;;41.61;21.31
64889;BME280;51386;53.082;8.816;2023-09-08T09:03:46;101779.78;;;42.07;20.59
64889;BME280;51386;53.082;8.816;2023-09-08T09:06:15;101785.59;;;42.36;20.58
64889;BME280;51386;53.082;8.816;2023-09-08T09:08:45;101778.31;;;42.47;19.96
64889;BME280;51386;53.082;8.816;2023-09-08T09:11:14;101776.44;;;42.52;20.20
64889;BME280;51386;53.082;8.816;2023-09-08T09:13:41;101775.47;;;42.63;20.10
64889;BME280;51386;53.082;8.816;2023-09-08T09:16:08;101772.06;;;42.51;19.89
64889;BME280;51386;53.082;8.816;2023-09-08T09:18:54;101764.59;;;42.35;20.22
64889;BME280;51386;53.082;8.816;2023-09-08T09:21:41;101765.31;;;42.32;20.43
64889;BME280;51386;53.082;8.816;2023-09-08T09:24:14;101767.94;;;42.44;20.19
64889;BME280;51386;53.082;8.816;2023-09-08T09:26:44;101759.22;;;42.62;19.86
64889;BME280;51386;53.082;8.816;2023-09-08T09:29:14;101758.59;;;42.91;19.84
64889;BME280;51386;53.082;8.816;2023-09-08T09:31:51;101748.09;;;43.26;19.24
64889;BME280;51386;53.082;8.816;2023-09-08T09:34:21;101757.38;;;43.60;19.66
64889;BME280;51386;53.082;8.816;2023-09-08T09:36:48;101749.06;;;43.86;19.11
64889;BME280;51386;53.082;8.816;2023-09-08T09:39:18;101751.91;;;44.23;18.91
64889;BME280;51386;53.082;8.816;2023-09-08T09:41:46;101750.50;;;44.69;17.97
64889;BME280;51386;53.082;8.816;2023-09-08T09:44:14;101762.56;;;44.84;18.54
64889;BME280;51386;53.082;8.816;2023-09-08T09:46:45;101760.69;;;44.98;18.09
64889;BME280;51386;53.082;8.816;2023-09-08T09:49:13;101756.59;;;45.26;18.09
64889;BME280;51386;53.082;8.816;2023-09-08T09:51:43;101755.13;;;45.46;17.16
64889;BME280;51386;53.082;8.816;2023-09-08T09:54:11;101750.06;;;45.55;17.56
64889;BME280;51386;53.082;8.816;2023-09-08T09:56:41;101745.94;;;45.35;17.28
64889;BME280;51386;53.082;8.816;2023-09-08T09:59:13;101749.56;;;44.98;17.51
64889;BME280;51386;53.082;8.816;2023-09-08T10:01:42;101740.78;;;44.53;18.43
64889;BME280;51386;53.082;8.816;2023-09-08T10:04:09;101743.53;;;43.90;19.03
64889;BME280;51386;53.082;8.816;2023-09-08T10:06:39;101746.47;;;43.25;19.24
64889;BME280;51386;53.082;8.816;2023-09-08T10:09:06;101743.88;;;42.48;19.78
64889;BME280;51386;53.082;8.816;2023-09-08T10:11:44;101740.41;;;41.63;20.34
64889;BME280;51386;53.082;8.816;2023-09-08T10:14:15;101746.06;;;41.04;21.68
64889;BME280;51386;53.082;8.816;2023-09-08T10:16:45;101742.06;;;40.86;21.39
64889;BME280;51386;53.082;8.816;2023-09-08T10:19:17;101738.06;;;40.71;22.38
64889;BME280;51386;53.082;8.816;2023-09-08T10:21:46;101743.66;;;40.31;22.48
64889;BME280;51386;53.082;8.816;2023-09-08T10:24:21;101735.91;;;39.97;22.95
64889;BME280;51386;53.082;8.816;2023-09-08T10:27:02;101729.06;;;39.43;23.18
64889;BME280;51386;53.082;8.816;2023-09-08T10:29:33;101728.41;;;38.89;23.85
64889;BME280;51386;53.082;8.816;2023-09-08T10:32:02;101724.41;;;38.33;24.37
64889;BME280;51386;53.082;8.816;2023-09-08T10:34:32;101720.47;;;37.72;25.01
64889;BME280;51386;53.082;8.816;2023-09-08T10:37:00;101722.34;;;37.13;25.70
64889;BME280;51386;53.082;8.816;2023-09-08T10:39:30;101718.09;;;36.78;25.87
64889;BME280;51386;53.082;8.816;2023-09-08T10:42:24;101721.66;;;36.61;26.86
64889;BME280;51386;53.082;8.816;2023-09-08T10:45:02;101721.47;;;36.66;26.41
64889;BME280;51386;53.082;8.816;2023-09-08T10:47:35;101721.84;;;36.56;27.35
64889;BME280;51386;53.082;8.816;2023-09-08T10:50:08;101718.28;;;36.30;26.85
64889;BME280;51386;53.082;8.816;2023-09-08T10:52:42;101721.66;;;36.01;27.96
64889;BME280;51386;53.082;8.816;2023-09-08T10:55:11;101717.84;;;35.71;28.26
64889;BME280;51386;53.082;8.816;2023-09-08T10:57:46;101718.88;;;35.45;29.05
64889;BME280;51386;53.082;8.816;2023-09-08T11:00:18;101715.28;;;35.27;28.42
64889;BME280;51386;53.082;8.816;2023-09-08T11:02:49;101712.00;;;35.16;29.35
64889;BME280;51386;53.082;8.816;2023-09-08T11:05:17;101718.56;;;35.07;29.26
64889;BME280;51386;53.082;8.816;2023-09-08T11:07:48;101714.72;;;35.08;29.67
64889;BME280;51386;53.082;8.816;2023-09-08T11:10:19;101719.56;;;35.11;29.43
64889;BME280;51386;53.082;8.816;2023-09-08T11:12:48;101720.13;;;35.30;29.52
64889;BME280;51386;53.082;8.816;2023-09-08T11:15:19;101717.09;;;35.40;29.55
64889;BME280;51386;53.082;8.816;2023-09-08T11:17:46;101722.28;;;35.50;28.99
64889;BME280;51386;53.082;8.816;2023-09-08T11:20:26;101713.31;;;35.58;28.17
64889;BME280;51386;53.082;8.816;2023-09-08T11:22:54;101715.78;;;35.68;28.11
64889;BME280;51386;53.082;8.816;2023-09-08T11:25:22;101719.47;;;35.72;28.29
64889;BME280;51386;53.082;8.816;2023-09-08T11:27:50;101719.16;;;35.65;28.63
64889;BME280;51386;53.082;8.816;2023-09-08T11:30:18;101721.56;;;35.58;28.65
64889;BME280;51386;53.082;8.816;2023-09-08T11:32:45;101720.88;;;35.53;28.18
64889;BME280;51386;53.082;8.816;2023-09-08T11:35:13;101720.50;;;35.46;28.89
64889;BME280;51386;53.082;8.816;2023-09-08T11:37:40;101731.59;;;35.41;28.28
64889;BME280;51386;53.082;8.816;2023-09-08T11:40:10;101725.09;;;35.28;28.67
64889;BME280;51386;53.082;8.816;2023-09-08T11:42:43;101723.28;;;35.15;29.15
64889;BME280;51386;53.082;8.816;2023-09-08T11:45:15;101721.97;;;35.04;29.06
64889;BME280;51386;53.082;8.816;2023-09-08T11:47:45;101714.94;;;34.98;30.01
64889;BME280;51386;53.082;8.816;2023-09-08T11:50:12;101717.53;;;34.94;29.45
64889;BME280;51386;53.082;8.816;2023-09-08T11:52:44;101717.19;;;34.96;29.75
64889;BME280;51386;53.082;8.816;2023-09-08T11:55:12;101712.59;;;35.05;28.66
64889;BME280;51386;53.082;8.816;2023-09-08T11:57:41;101709.25;;;35.08;29.53
64889;BME280;51386;53.082;8.816;2023-09-08T12:00:10;101716.16;;;35.05;29.32
64889;BME280;51386;53.082;8.816;2023-09-08T12:02:44;101711.09;;;34.99;29.46
64889;BME280;51386;53.082;8.816;2023-09-08T12:05:13;101706.75;;;34.98;29.12
64889;BME280;51386;53.082;8.816;2023-09-08T12:07:40;101709.31;;;34.94;29.04
64889;BME280;51386;53.082;8.816;2023-09-08T12:10:10;101711.41;;;34.97;29.26
64889;BME280;51386;53.082;8.816;2023-09-08T12:12:45;101705.81;;;35.02;29.50
64889;BME280;51386;53.082;8.816;2023-09-08T12:15:29;101701.38;;;34.93;29.22
64889;BME280;51386;53.082;8.816;2023-09-08T12:18:02;101697.53;;;34.94;29.60
64889;BME280;51386;53.082;8.816;2023-09-08T12:20:31;101695.44;;;34.91;29.92
64889;BME280;51386;53.082;8.816;2023-09-08T12:23:01;101689.94;;;34.91;29.80
64889;BME280;51386;53.082;8.816;2023-09-08T12:25:29;101689.19;;;34.99;30.29
64889;BME280;51386;53.082;8.816;2023-09-08T12:27:58;101695.06;;;35.06;29.71
64889;BME280;51386;53.082;8.816;2023-09-08T12:30:28;101692.34;;;35.14;29.74
64889;BME280;51386;53.082;8.816;2023-09-08T12:33:02;101689.31;;;35.16;29.14
64889;BME280;51386;53.082;8.816;2023-09-08T12:35:29;101682.47;;;35.05;29.06
64889;BME280;51386;53.082;8.816;2023-09-08T12:38:01;101685.72;;;35.07;29.41
64889;BME280;51386;53.082;8.816;2023-09-08T12:40:33;101676.38;;;35.08;28.80
64889;BME280;51386;53.082;8.816;2023-09-08T12:43:00;101682.84;;;35.12;29.62
64889;BME280;51386;53.082;8.816;2023-09-08T12:45:46;101676.41;;;35.16;28.79
64889;BME280;51386;53.082;8.816;2023-09-08T12:48:15;101680.94;;;35.21;28.39
64889;BME280;51386;53.082;8.816;2023-09-08T12:50:42;101675.78;;;35.28;28.50
64889;BME280;51386;53.082;8.816;2023-09-08T12:53:09;101670.66;;;35.35;28.72
64889;BME280;51386;53.082;8.816;2023-09-08T12:55:36;101666.19;;;35.39;28.15
64889;BME280;51386;53.082;8.816;2023-09-08T12:58:03;101657.47;;;35.37;28.74